createdAt,value
2017-09-22T00:01:06.500Z,75.23
2017-09-22T00:02:16.887Z,75.2
2017-09-22T00:03:27.240Z,75.23
2017-09-22T00:04:37.256Z,75.14
2017-09-22T00:05:47.265Z,75.33
2017-09-22T00:06:57.282Z,75.01
2017-09-22T00:08:07.612Z,75.14
2017-09-22T00:09:17.328Z,75.29
2017-09-22T00:10:27.674Z,75.14
2017-09-22T00:11:37.693Z,75.1
2017-09-22T00:12:47.709Z,75.29
2017-09-22T00:13:58.065Z,75.39
2017-09-22T00:15:08.391Z,75.29
2017-09-22T00:16:18.751Z,75.1
2017-09-22T00:17:29.086Z,75.39
2017-09-22T00:18:39.453Z,75.29
2017-09-22T00:19:49.495Z,75.23
2017-09-22T00:20:59.827Z,75.29
2017-09-22T00:22:09.906Z,75.2
2017-09-22T00:23:20.266Z,75.2
2017-09-22T00:24:30.601Z,75.29
2017-09-22T00:25:40.938Z,75.39
2017-09-22T00:26:50.959Z,75.29
2017-09-22T00:28:01.296Z,75.2
2017-09-22T00:29:11.325Z,75.2
2017-09-22T00:30:21.551Z,75.01
2017-09-22T00:31:31.898Z,75.2
2017-09-22T00:32:44.046Z,75.39
2017-09-22T00:33:54.059Z,75.29
2017-09-22T00:35:04.396Z,75.2
2017-09-22T00:36:14.122Z,75.29
2017-09-22T00:37:24.460Z,75.29
2017-09-22T00:38:34.808Z,75.2
2017-09-22T00:39:45.159Z,75.39
2017-09-22T00:40:55.490Z,75.2
2017-09-22T00:42:05.827Z,75.1
2017-09-22T00:43:16.169Z,75.1
2017-09-22T00:44:26.186Z,75.1
2017-09-22T00:45:35.890Z,75.29
2017-09-22T00:46:46.218Z,74.91
2017-09-22T00:47:56.573Z,75.1
2017-09-22T00:49:06.298Z,75.29
2017-09-22T00:50:16.624Z,75.14
2017-09-22T00:51:26.973Z,75.2
2017-09-22T00:52:37.331Z,75.29
2017-09-22T00:53:47.677Z,75.29
2017-09-22T00:54:58.065Z,75.1
2017-09-22T00:56:08.404Z,75.39
2017-09-22T00:57:18.738Z,75.2
2017-09-22T00:58:28.758Z,75.39
2017-09-22T00:59:39.093Z,75.1
2017-09-22T01:00:49.488Z,75.1
2017-09-22T01:01:59.831Z,75.01
2017-09-22T01:03:09.865Z,75.1
2017-09-22T01:04:20.208Z,75.29
2017-09-22T01:05:30.543Z,75.1
2017-09-22T01:06:40.559Z,75.01
2017-09-22T01:07:50.585Z,74.91
2017-09-22T01:09:00.608Z,75.1
2017-09-22T01:10:10.327Z,75.1
2017-09-22T01:11:20.352Z,75.29
2017-09-22T01:12:30.384Z,75.29
2017-09-22T01:13:40.405Z,75.29
2017-09-22T01:14:49.787Z,75.29
2017-09-22T01:15:59.809Z,75.2
2017-09-22T01:17:09.506Z,75.1
2017-09-22T01:18:19.844Z,75.1
2017-09-22T01:19:30.174Z,75.29
2017-09-22T01:20:40.513Z,75.1
2017-09-22T01:21:51.047Z,75.2
2017-09-22T01:23:03.237Z,75.29
2017-09-22T01:24:13.606Z,75.2
2017-09-22T01:25:23.321Z,75.1
2017-09-22T01:26:33.698Z,75.29
2017-09-22T01:27:44.031Z,75.29
2017-09-22T01:28:54.048Z,75.1
2017-09-22T01:30:04.460Z,75.58
2017-09-22T01:31:14.796Z,75.48
2017-09-22T01:32:25.154Z,75.58
2017-09-22T01:33:35.489Z,75.48
2017-09-22T01:34:45.521Z,75.68
2017-09-22T01:35:55.866Z,75.58
2017-09-22T01:37:06.219Z,75.48
2017-09-22T01:38:16.553Z,75.48
2017-09-22T01:39:26.577Z,75.48
2017-09-22T01:40:36.620Z,75.58
2017-09-22T01:41:47.007Z,75.68
2017-09-22T01:42:57.030Z,75.58
2017-09-22T01:44:07.405Z,75.58
2017-09-22T01:45:17.443Z,75.29
2017-09-22T01:46:27.786Z,75.1
2017-09-22T01:47:38.130Z,75.16
2017-09-22T01:48:48.510Z,75.1
2017-09-22T01:49:58.849Z,75.83
2017-09-22T01:51:09.196Z,75.39
2017-09-22T01:52:19.519Z,75.35
2017-09-22T01:53:29.572Z,75.39
2017-09-22T01:54:39.910Z,75.39
2017-09-22T01:55:50.247Z,75.48
2017-09-22T01:57:00.596Z,75.54
2017-09-22T01:58:10.936Z,75.35
2017-09-22T01:59:20.953Z,75.35
2017-09-22T02:00:30.647Z,75.26
2017-09-22T02:01:40.660Z,75.68
2017-09-22T02:02:50.990Z,75.35
2017-09-22T02:04:01.016Z,75.39
2017-09-22T02:05:11.366Z,75.39
2017-09-22T02:06:21.388Z,75.64
2017-09-22T02:07:31.722Z,75.58
2017-09-22T02:08:42.075Z,75.93
2017-09-22T02:09:52.423Z,75.54
2017-09-22T02:11:02.770Z,75.54
2017-09-22T02:12:12.791Z,75.54
2017-09-22T02:13:23.129Z,75.45
2017-09-22T02:14:33.488Z,75.26
2017-09-22T02:15:43.817Z,75.45
2017-09-22T02:16:54.165Z,75.54
2017-09-22T02:18:04.516Z,75.64
2017-09-22T02:19:14.852Z,75.64
2017-09-22T02:20:24.866Z,75.07
2017-09-22T02:21:34.563Z,75.07
2017-09-22T02:22:44.576Z,75.26
2017-09-22T02:23:54.931Z,75.35
2017-09-22T02:25:04.957Z,75.35
2017-09-22T02:26:15.911Z,75.26
2017-09-22T02:27:26.882Z,75.26
2017-09-22T02:28:37.226Z,75.26
2017-09-22T02:29:47.555Z,75.16
2017-09-22T02:30:57.592Z,75.35
2017-09-22T02:32:07.609Z,75.26
2017-09-22T02:33:17.949Z,74.87
2017-09-22T02:34:28.372Z,75.26
2017-09-22T02:35:38.710Z,75.07
2017-09-22T02:36:49.055Z,74.87
2017-09-22T02:37:59.085Z,75.26
2017-09-22T02:39:09.429Z,75.26
2017-09-22T02:40:19.825Z,75.35
2017-09-22T02:41:29.844Z,75.26
2017-09-22T02:42:40.175Z,75.16
2017-09-22T02:43:50.515Z,75.35
2017-09-22T02:45:00.539Z,74.87
2017-09-22T02:46:10.556Z,75.07
2017-09-22T02:47:20.891Z,75.1
2017-09-22T02:48:31.223Z,75.07
2017-09-22T02:49:41.571Z,75.1
2017-09-22T02:50:51.601Z,75.1
2017-09-22T02:52:01.990Z,74.87
2017-09-22T02:53:12.331Z,74.87
2017-09-22T02:54:22.692Z,75.2
2017-09-22T02:55:33.048Z,74.91
2017-09-22T02:56:43.400Z,75.2
2017-09-22T02:57:53.781Z,75.07
2017-09-22T02:59:04.131Z,75.2
2017-09-22T03:00:14.466Z,74.87
2017-09-22T03:01:24.482Z,75.2
2017-09-22T03:33:32.050Z,71.28
2017-09-22T03:34:42.074Z,72.05
2017-09-22T03:35:52.405Z,72.72
2017-09-22T03:37:02.720Z,73.77
2017-09-22T03:38:12.722Z,74.24
2017-09-22T03:39:23.083Z,74.82
2017-09-22T03:40:32.792Z,74.91
2017-09-22T03:41:43.122Z,75.39
2017-09-22T03:42:53.136Z,75.52
2017-09-22T03:44:03.468Z,75.62
2017-09-22T03:45:13.174Z,75.43
2017-09-22T03:46:23.515Z,75.52
2017-09-22T03:47:33.538Z,76.04
2017-09-22T03:48:43.871Z,76.04
2017-09-22T03:49:53.900Z,75.66
2017-09-22T03:51:03.688Z,75.66
2017-09-22T03:52:14.020Z,75.56
2017-09-22T03:53:23.735Z,75.51
2017-09-22T03:54:34.067Z,75.7
2017-09-22T03:55:44.400Z,75.79
2017-09-22T03:56:54.407Z,75.79
2017-09-22T03:58:04.784Z,75.83
2017-09-22T03:59:15.120Z,75.26
2017-09-22T04:00:25.459Z,75.54
2017-09-22T04:01:34.855Z,75.45
2017-09-22T04:02:45.204Z,75.73
2017-09-22T04:03:55.543Z,75.64
2017-09-22T04:05:05.569Z,75.54
2017-09-22T04:06:15.597Z,75.35
2017-09-22T04:07:25.638Z,74.87
2017-09-22T04:08:36.054Z,74.91
2017-09-22T04:09:46.066Z,75.2
2017-09-22T04:10:56.411Z,75.16
2017-09-22T04:12:06.425Z,75.58
2017-09-22T04:13:16.441Z,75.1
2017-09-22T04:14:26.778Z,75.29
2017-09-22T04:15:37.121Z,75.1
2017-09-22T04:16:46.822Z,75.1
2017-09-22T04:17:58.496Z,75.58
2017-09-22T04:19:08.829Z,75.01
2017-09-22T04:20:19.204Z,75.39
2017-09-22T04:21:29.542Z,75.39
2017-09-22T04:22:39.560Z,75.39
2017-09-22T04:23:49.896Z,75.39
2017-09-22T04:24:59.925Z,75.39
2017-09-22T04:26:10.262Z,75.39
2017-09-22T04:27:20.289Z,75.68
2017-09-22T04:28:30.628Z,75.77
2017-09-22T04:29:40.989Z,75.39
2017-09-22T04:30:51.017Z,75.39
2017-09-22T04:32:01.069Z,75.39
2017-09-22T04:33:11.100Z,75.39
2017-09-22T04:34:20.803Z,75.29
2017-09-22T04:35:31.149Z,75.01
2017-09-22T04:36:41.487Z,75.1
2017-09-22T04:37:51.508Z,75.1
2017-09-22T04:39:01.841Z,75.1
2017-09-22T04:40:11.537Z,75.1
2017-09-22T04:41:21.875Z,75.29
2017-09-22T04:42:32.204Z,75.2
2017-09-22T04:43:42.611Z,75.2
2017-09-22T04:44:52.650Z,75.29
2017-09-22T04:46:02.996Z,75.01
2017-09-22T04:47:13.339Z,75.1
2017-09-22T04:48:23.360Z,75.29
2017-09-22T04:49:33.076Z,75.2
2017-09-22T04:50:43.419Z,75.1
2017-09-22T04:51:53.761Z,75.2
2017-09-22T04:53:04.095Z,75.01
2017-09-22T04:54:14.433Z,75.77
2017-09-22T04:55:24.829Z,75.39
2017-09-22T04:56:34.856Z,75.77
2017-09-22T04:57:45.211Z,75.39
2017-09-22T04:58:55.565Z,75.58
2017-09-22T05:00:05.915Z,75.39
2017-09-22T05:01:16.324Z,75.77
2017-09-22T05:02:26.661Z,75.39
2017-09-22T05:03:37.062Z,75.77
2017-09-22T05:04:47.400Z,75.58
2017-09-22T05:05:57.735Z,75.1
2017-09-22T05:07:08.142Z,75.1
2017-09-22T05:08:18.475Z,75.29
2017-09-22T05:09:28.490Z,75.04
2017-09-22T05:10:38.833Z,75.14
2017-09-22T05:11:48.877Z,75.33
2017-09-22T05:12:58.636Z,75.23
2017-09-22T05:14:08.992Z,75.33
2017-09-22T05:15:19.015Z,75.33
2017-09-22T05:16:29.370Z,75.33
2017-09-22T05:17:39.737Z,75.04
2017-09-22T05:18:49.755Z,75.33
2017-09-22T05:19:59.821Z,75.14
2017-09-22T05:21:09.848Z,75.33
2017-09-22T05:22:19.889Z,75.43
2017-09-22T05:23:30.244Z,75.23
2017-09-22T05:24:40.605Z,75.14
2017-09-22T05:25:50.964Z,75.43
2017-09-22T05:27:00.993Z,75.04
2017-09-22T05:28:11.320Z,75.14
2017-09-22T05:29:21.665Z,75.33
2017-09-22T05:30:32.000Z,75.23
2017-09-22T05:31:41.725Z,75.14
2017-09-22T05:32:52.071Z,75.14
2017-09-22T05:34:02.412Z,75.23
2017-09-22T05:35:12.760Z,75.33
2017-09-22T05:36:23.086Z,75.33
2017-09-22T05:37:33.102Z,75.33
2017-09-22T05:38:43.439Z,75.33
2017-09-22T05:39:53.454Z,75.23
2017-09-22T05:41:04.025Z,75.33
2017-09-22T05:42:13.732Z,75.14
2017-09-22T05:43:23.816Z,74.95
2017-09-22T05:44:34.173Z,75.27
2017-09-22T05:45:44.572Z,75.18
2017-09-22T05:46:54.907Z,74.57
2017-09-22T05:48:04.931Z,75.56
2017-09-22T05:49:15.266Z,74.69
2017-09-22T05:50:25.296Z,74.6
2017-09-22T05:51:35.310Z,74.51
2017-09-22T05:52:45.331Z,74.51
2017-09-22T05:53:55.347Z,74.41
2017-09-22T05:55:05.061Z,74.51
2017-09-22T05:56:15.398Z,74.6
2017-09-22T05:57:25.441Z,74.41
2017-09-22T05:58:35.779Z,74.51
2017-09-22T05:59:45.806Z,74.51
2017-09-22T06:00:56.145Z,74.6
2017-09-22T06:02:06.190Z,74.51
2017-09-22T06:03:16.537Z,74.51
2017-09-22T06:04:26.883Z,74.22
2017-09-22T06:05:37.225Z,74.22
2017-09-22T06:06:46.926Z,74.69
2017-09-22T06:07:57.281Z,74.51
2017-09-22T06:09:07.632Z,74.41
2017-09-22T06:10:17.659Z,74.6
2017-09-22T06:11:27.695Z,74.31
2017-09-22T06:12:38.038Z,74.51
2017-09-22T06:13:48.373Z,74.54
2017-09-22T06:15:00.370Z,74.44
2017-09-22T06:16:12.287Z,74.73
2017-09-22T06:17:22.683Z,74.64
2017-09-22T06:18:33.031Z,74.73
2017-09-22T06:19:43.361Z,74.64
2017-09-22T06:20:53.693Z,74.64
2017-09-22T06:22:04.018Z,74.73
2017-09-22T06:23:14.417Z,74.16
2017-09-22T06:24:24.753Z,74.16
2017-09-22T06:25:35.092Z,74.64
2017-09-22T06:26:45.447Z,74.16
2017-09-22T06:27:55.480Z,74.35
2017-09-22T06:29:05.548Z,73.97
2017-09-22T06:30:15.934Z,74.06
2017-09-22T06:31:26.265Z,74.19
2017-09-22T06:32:36.312Z,74.19
2017-09-22T06:33:46.328Z,74.19
2017-09-22T06:34:56.336Z,73.81
2017-09-22T06:36:06.687Z,74.1
2017-09-22T06:37:16.716Z,73.91
2017-09-22T06:38:27.060Z,74.01
2017-09-22T06:39:37.427Z,74.29
2017-09-22T06:40:47.838Z,74.1
2017-09-22T06:41:58.195Z,74.1
2017-09-22T06:43:08.546Z,73.75
2017-09-22T06:44:20.537Z,73.56
2017-09-22T06:45:30.875Z,73.56
2017-09-22T06:46:40.954Z,73.75
2017-09-22T06:47:50.970Z,73.37
2017-09-22T06:49:01.788Z,73.37
2017-09-22T06:50:12.119Z,73.85
2017-09-22T06:51:22.464Z,73.66
2017-09-22T06:52:32.816Z,73.66
2017-09-22T06:53:42.873Z,73.94
2017-09-22T06:54:53.209Z,73.88
2017-09-22T06:56:04.867Z,73.75
2017-09-22T06:57:14.939Z,73.98
2017-09-22T06:58:25.339Z,73.79
2017-09-22T06:59:35.353Z,73.79
2017-09-22T07:00:45.694Z,73.88
2017-09-22T07:01:56.036Z,73.5
2017-09-22T07:03:06.073Z,72.83
2017-09-22T07:04:16.459Z,73.02
2017-09-22T07:05:26.490Z,73.02
2017-09-22T07:06:36.838Z,73.02
2017-09-22T07:07:47.173Z,73.98
2017-09-22T07:08:57.506Z,73.02
2017-09-22T07:10:07.897Z,73.02
2017-09-22T07:11:17.903Z,73.6
2017-09-22T07:12:28.235Z,73.79
2017-09-22T07:13:38.573Z,73.79
2017-09-22T07:14:48.920Z,73.6
2017-09-22T07:15:59.256Z,73.69
2017-09-22T07:17:09.019Z,73.6
2017-09-22T07:18:18.722Z,73.6
2017-09-22T07:19:29.058Z,74.08
2017-09-22T07:20:38.768Z,74.17
2017-09-22T07:21:49.101Z,74.17
2017-09-22T07:22:59.128Z,73.69
2017-09-22T07:24:09.466Z,73.98
2017-09-22T07:25:19.802Z,73.79
2017-09-22T07:26:30.208Z,73.06
2017-09-22T07:27:40.543Z,73.15
2017-09-22T07:28:50.877Z,73.44
2017-09-22T07:30:01.218Z,73.44
2017-09-22T07:31:11.238Z,73
2017-09-22T07:32:21.310Z,73.28
2017-09-22T07:33:31.645Z,73.38
2017-09-22T07:34:41.665Z,73.19
2017-09-22T07:35:51.683Z,73.03
2017-09-22T07:37:02.022Z,73
2017-09-22T07:38:12.372Z,73.22
2017-09-22T07:39:22.402Z,73.22
2017-09-22T07:40:32.743Z,73.22
2017-09-22T07:41:43.117Z,73.42
2017-09-22T07:42:53.138Z,72.74
2017-09-22T07:44:04.426Z,72.94
2017-09-22T07:45:14.766Z,73.13
2017-09-22T07:46:25.107Z,72.65
2017-09-22T07:47:34.816Z,72.49
2017-09-22T07:48:45.167Z,73.03
2017-09-22T07:49:54.869Z,72.97
2017-09-22T07:51:05.222Z,73.03
2017-09-22T07:52:15.243Z,73.22
2017-09-22T07:53:25.288Z,73.61
2017-09-22T07:54:35.641Z,73.42
2017-09-22T07:55:45.669Z,74.09
2017-09-22T07:56:55.689Z,73.71
2017-09-22T07:58:06.034Z,73.42
2017-09-22T07:59:16.064Z,73.13
2017-09-22T08:00:26.090Z,73.51
2017-09-22T08:01:36.446Z,73.22
2017-09-22T08:02:46.787Z,73.32
2017-09-22T08:03:57.131Z,73.71
2017-09-22T08:05:07.476Z,73.61
2017-09-22T08:06:17.173Z,73.61
2017-09-22T08:07:27.517Z,73.61
2017-09-22T08:08:37.857Z,73.61
2017-09-22T08:09:47.886Z,73.61
2017-09-22T08:10:58.229Z,73.8
2017-09-22T08:12:08.263Z,73.71
2017-09-22T08:13:18.637Z,73.9
2017-09-22T08:14:28.666Z,73.99
2017-09-22T08:15:38.701Z,73.8
2017-09-22T08:16:49.035Z,73.61
2017-09-22T08:17:59.066Z,73.42
2017-09-22T08:19:09.077Z,73.51
2017-09-22T08:20:19.094Z,73.71
2017-09-22T08:21:29.450Z,73.61
2017-09-22T08:22:39.462Z,73.8
2017-09-22T08:23:49.166Z,73.71
2017-09-22T08:24:59.181Z,73.51
2017-09-22T08:26:09.528Z,73.42
2017-09-22T08:27:19.877Z,73.51
2017-09-22T08:28:30.211Z,73.42
2017-09-22T08:29:40.248Z,73.71
2017-09-22T08:30:53.430Z,73.61
2017-09-22T08:32:03.788Z,73.32
2017-09-22T08:33:13.821Z,73.65
2017-09-22T08:34:24.164Z,72.78
2017-09-22T08:35:34.502Z,73.07
2017-09-22T08:36:44.540Z,72.68
2017-09-22T08:37:54.893Z,72.68
2017-09-22T08:39:04.923Z,72.59
2017-09-22T08:40:14.953Z,72.05
2017-09-22T08:41:24.992Z,72.33
2017-09-22T08:42:34.696Z,72.14
2017-09-22T08:43:45.049Z,71.47
2017-09-22T08:44:55.382Z,71.47
2017-09-22T08:46:05.719Z,71.79
2017-09-22T08:47:16.113Z,71.6
2017-09-22T08:48:26.458Z,71.79
2017-09-22T08:49:36.527Z,71.83
2017-09-22T08:50:46.880Z,71.25
2017-09-22T08:51:56.913Z,70.32
2017-09-22T08:53:07.000Z,70.36
2017-09-22T08:54:17.339Z,70
2017-09-22T08:55:27.676Z,69.84
2017-09-22T08:56:38.015Z,69.36
2017-09-22T08:57:48.370Z,69.98
2017-09-22T08:58:58.760Z,70.26
2017-09-22T09:00:09.121Z,70.23
2017-09-22T09:01:19.451Z,71.1
2017-09-22T09:02:29.783Z,71.94
2017-09-22T09:03:40.148Z,72.9
2017-09-22T09:04:50.493Z,73.15
2017-09-22T09:06:00.840Z,73.35
2017-09-22T09:07:11.199Z,73.31
2017-09-22T09:08:21.540Z,73.99
2017-09-22T09:09:31.906Z,73.66
2017-09-22T09:10:42.263Z,73.37
2017-09-22T09:11:52.632Z,73.66
2017-09-22T09:13:02.975Z,73.66
2017-09-22T09:14:12.992Z,73.75
2017-09-22T09:15:24.681Z,73.27
2017-09-22T09:16:35.021Z,73.08
2017-09-22T09:17:45.064Z,73.18
2017-09-22T09:18:55.416Z,72.73
2017-09-22T09:20:05.436Z,72.54
2017-09-22T09:21:15.785Z,71.7
2017-09-22T09:22:26.134Z,71.9
2017-09-22T09:23:36.496Z,72.09
2017-09-22T09:24:46.851Z,71.7
2017-09-22T09:25:58.097Z,71.8
2017-09-22T09:27:08.455Z,71.84
2017-09-22T09:28:18.810Z,71.84
2017-09-22T09:29:29.174Z,71.74
2017-09-22T09:30:39.195Z,71.36
2017-09-22T09:31:49.247Z,71.64
2017-09-22T09:32:59.255Z,71.64
2017-09-22T09:34:09.338Z,71.94
2017-09-22T09:35:19.706Z,71.84
2017-09-22T09:36:30.039Z,71.58
2017-09-22T09:37:40.381Z,71.2
2017-09-22T09:38:55.162Z,70.9
2017-09-22T09:40:05.505Z,71.1
2017-09-22T09:41:15.551Z,71.2
2017-09-22T09:42:25.608Z,71
2017-09-22T09:43:35.957Z,71
2017-09-22T09:44:45.962Z,71.1
2017-09-22T09:46:00.352Z,71.2
2017-09-22T09:47:10.385Z,70.9
2017-09-22T09:48:20.724Z,70.9
2017-09-22T09:49:31.070Z,71.1
2017-09-22T09:50:41.417Z,71.42
2017-09-22T09:51:51.762Z,70.84
2017-09-22T09:53:01.788Z,71.23
2017-09-22T09:54:12.130Z,70.94
2017-09-22T09:55:23.933Z,71.23
2017-09-22T09:56:33.954Z,70.75
2017-09-22T09:57:44.556Z,70.78
2017-09-22T09:58:54.899Z,70.59
2017-09-22T10:00:04.930Z,70.4
2017-09-22T10:01:15.279Z,70.4
2017-09-22T10:02:25.302Z,70.78
2017-09-22T10:03:35.339Z,70.88
2017-09-22T10:04:46.926Z,71.17
2017-09-22T10:05:56.954Z,71.36
2017-09-22T10:07:07.304Z,70.88
2017-09-22T10:08:17.647Z,70.59
2017-09-22T10:09:27.703Z,70.62
2017-09-22T10:10:38.051Z,70.68
2017-09-22T10:11:48.407Z,70.92
2017-09-22T10:12:58.750Z,70.53
2017-09-22T10:14:09.094Z,70.43
2017-09-22T10:15:19.425Z,70.43
2017-09-22T10:16:29.777Z,70.53
2017-09-22T10:17:40.115Z,70.62
2017-09-22T10:18:50.467Z,70.56
2017-09-22T10:20:00.865Z,70.66
2017-09-22T10:21:11.212Z,70.27
2017-09-22T10:22:21.555Z,70.56
2017-09-22T10:23:31.899Z,70.56
2017-09-22T10:24:42.242Z,70.95
2017-09-22T10:25:52.661Z,70.95
2017-09-22T10:27:03.014Z,70.95
2017-09-22T10:28:13.032Z,70.76
2017-09-22T10:29:23.073Z,70.47
2017-09-22T10:30:33.099Z,70.56
2017-09-22T10:31:43.449Z,70.6
2017-09-22T10:32:53.795Z,70.5
2017-09-22T10:34:04.155Z,70.6
2017-09-22T10:35:14.568Z,70.4
2017-09-22T10:36:24.328Z,70.31
2017-09-22T10:37:34.366Z,70.21
2017-09-22T10:38:44.722Z,70.44
2017-09-22T10:39:55.069Z,70.11
2017-09-22T10:41:06.769Z,70.54
2017-09-22T10:42:16.999Z,70.5
2017-09-22T10:43:27.364Z,70.54
2017-09-22T10:44:37.735Z,70.44
2017-09-22T10:45:47.783Z,70.54
2017-09-22T10:46:57.923Z,70.89
2017-09-22T10:48:10.501Z,70.6
2017-09-22T10:49:21.063Z,70.6
2017-09-22T10:50:31.415Z,70.7
2017-09-22T10:51:41.757Z,71.08
2017-09-22T10:52:51.835Z,71.56
2017-09-22T10:54:02.191Z,71.28
2017-09-22T10:55:12.217Z,71.14
2017-09-22T10:56:22.235Z,71.53
2017-09-22T10:57:32.276Z,71.24
2017-09-22T10:58:42.690Z,71.14
2017-09-22T10:59:53.041Z,71.47
2017-09-22T11:01:03.072Z,70.7
2017-09-22T11:02:13.092Z,70.7
2017-09-22T11:03:23.437Z,70.6
2017-09-22T11:04:33.787Z,71.47
2017-09-22T11:05:43.816Z,71.18
2017-09-22T11:06:56.083Z,70.95
2017-09-22T11:08:06.430Z,71.24
2017-09-22T11:09:16.764Z,71.04
2017-09-22T11:10:26.799Z,71.34
2017-09-22T11:11:37.154Z,71.69
2017-09-22T11:12:47.173Z,71.98
2017-09-22T11:13:56.886Z,71.98
2017-09-22T11:15:06.922Z,71.88
2017-09-22T11:16:17.260Z,71.3
2017-09-22T11:17:27.296Z,71.2
2017-09-22T11:18:37.639Z,71.5
2017-09-22T11:19:47.338Z,71.3
2017-09-22T11:20:57.672Z,71.78
2017-09-22T11:22:08.068Z,71.78
2017-09-22T11:23:17.800Z,71.88
2017-09-22T11:24:27.817Z,71.78
2017-09-22T11:25:37.844Z,71.78
2017-09-22T11:26:47.559Z,72.27
2017-09-22T11:27:57.957Z,72.36
2017-09-22T11:29:07.986Z,72.36
2017-09-22T11:30:18.332Z,72.27
2017-09-22T11:31:28.676Z,71.84
2017-09-22T11:32:39.025Z,72.04
2017-09-22T11:33:49.412Z,71.84
2017-09-22T11:34:59.746Z,72.14
2017-09-22T11:36:10.104Z,72.14
2017-09-22T11:37:20.431Z,71.98
2017-09-22T11:38:30.779Z,71.88
2017-09-22T11:39:40.814Z,71.98
2017-09-22T11:40:51.168Z,71.94
2017-09-22T11:42:01.527Z,72.42
2017-09-22T11:43:11.564Z,72.33
2017-09-22T11:44:21.277Z,72.97
2017-09-22T11:45:31.670Z,73.36
2017-09-22T11:46:42.019Z,73.13
2017-09-22T11:47:52.367Z,72.94
2017-09-22T11:49:02.404Z,73.32
2017-09-22T11:50:12.441Z,73.13
2017-09-22T11:51:22.863Z,73.61
2017-09-22T11:52:33.218Z,73.48
2017-09-22T11:53:43.226Z,73.03
2017-09-22T11:54:53.247Z,73.19
2017-09-22T11:56:03.584Z,73.48
2017-09-22T11:57:13.987Z,73.67
2017-09-22T11:58:24.335Z,73.63
2017-09-22T11:59:34.666Z,73.63
2017-09-22T12:00:44.701Z,74.12
2017-09-22T12:01:54.749Z,74.18
2017-09-22T12:03:07.695Z,73.99
2017-09-22T12:04:18.042Z,73.99
2017-09-22T12:05:28.400Z,74.18
2017-09-22T12:06:38.748Z,73.99
2017-09-22T12:07:48.469Z,73.95
2017-09-22T12:08:58.810Z,74.24
2017-09-22T12:10:08.830Z,74.43
2017-09-22T12:11:18.850Z,74.3
2017-09-22T12:12:29.179Z,74.3
2017-09-22T12:13:39.201Z,74.2
2017-09-22T12:14:49.538Z,74.58
2017-09-22T12:15:59.554Z,74.4
2017-09-22T12:17:09.580Z,75.07
2017-09-22T12:18:19.598Z,74.93
2017-09-22T12:19:29.943Z,74.93
2017-09-22T12:20:42.187Z,74.93
2017-09-22T12:21:52.534Z,74.55
2017-09-22T12:23:02.876Z,74.45
2017-09-22T12:24:13.236Z,74.65
2017-09-22T12:25:23.599Z,74.65
2017-09-22T12:26:33.691Z,74.65
2017-09-22T12:27:43.732Z,74.8
2017-09-22T12:28:54.096Z,74.61
2017-09-22T12:30:04.436Z,74.99
2017-09-22T12:31:14.778Z,74.71
2017-09-22T12:32:25.125Z,74.8
2017-09-22T12:33:35.141Z,74.32
2017-09-22T12:34:45.484Z,74.32
2017-09-22T12:35:55.834Z,74.32
2017-09-22T12:37:05.876Z,74.13
2017-09-22T12:38:16.204Z,74.8
2017-09-22T12:39:26.573Z,74.61
2017-09-22T12:40:36.925Z,74.61
2017-09-22T12:41:47.262Z,74.61
2017-09-22T12:42:57.586Z,74.71
2017-09-22T12:44:07.991Z,74.51
2017-09-22T12:45:18.371Z,74.51
2017-09-22T12:46:28.724Z,74.99
2017-09-22T12:55:27.177Z,74.38
2017-09-22T12:56:37.521Z,74.76
2017-09-22T12:57:47.882Z,74.57
2017-09-22T12:59:00.285Z,74.96
2017-09-22T13:00:10.657Z,74.86
2017-09-22T13:01:21.612Z,74.76
2017-09-22T13:02:31.655Z,74.38
2017-09-22T13:03:41.681Z,74.57
2017-09-22T13:04:52.083Z,74.48
2017-09-22T13:06:02.438Z,74.48
2017-09-22T13:07:12.800Z,74.86
2017-09-22T13:08:23.163Z,74.86
2017-09-22T13:09:34.712Z,74.67
2017-09-22T13:10:45.129Z,74.86
2017-09-22T13:11:55.158Z,74.86
2017-09-22T13:13:05.501Z,74.86
2017-09-22T13:14:15.213Z,74.96
2017-09-22T13:15:25.568Z,74.86
2017-09-22T13:16:35.906Z,75.02
2017-09-22T13:17:45.953Z,74.57
2017-09-22T13:18:56.005Z,74.57
2017-09-22T13:20:06.040Z,74.54
2017-09-22T13:21:16.374Z,74.38
2017-09-22T13:22:26.085Z,74.19
2017-09-22T13:23:36.443Z,73.99
2017-09-22T13:24:46.802Z,73.51
2017-09-22T13:25:56.840Z,73.9
2017-09-22T13:27:07.193Z,73.22
2017-09-22T13:28:17.542Z,73.46
2017-09-22T13:29:27.255Z,73.65
2017-09-22T13:30:37.587Z,73.97
2017-09-22T13:31:47.949Z,73.78
2017-09-22T13:32:58.294Z,73.78
2017-09-22T13:34:08.371Z,73.88
2017-09-22T13:35:18.721Z,73.58
2017-09-22T13:36:29.075Z,73.39
2017-09-22T13:37:39.438Z,73.3
2017-09-22T13:38:49.464Z,73.49
2017-09-22T13:39:59.547Z,73.68
2017-09-22T13:41:09.577Z,73.62
2017-09-22T13:42:20.003Z,72.95
2017-09-22T13:43:30.349Z,72.37
2017-09-22T13:44:40.397Z,72.12
2017-09-22T13:45:50.469Z,72.15
2017-09-22T13:47:00.823Z,72.25
2017-09-22T13:48:10.879Z,71.51
2017-09-22T13:49:21.236Z,71.64
2017-09-22T13:50:31.591Z,71.74
2017-09-22T13:51:41.662Z,71.68
2017-09-22T13:52:52.085Z,71.78
2017-09-22T13:54:02.123Z,71.68
2017-09-22T13:55:12.468Z,71.78
2017-09-22T13:56:22.808Z,72.26
2017-09-22T13:57:33.234Z,72.16
2017-09-22T13:58:43.271Z,71.88
2017-09-22T13:59:53.610Z,72.55
2017-09-22T14:01:03.331Z,72.26
2017-09-22T14:02:13.699Z,73.03
2017-09-22T14:03:24.052Z,73
2017-09-22T14:04:34.407Z,73.48
2017-09-22T14:05:44.751Z,74.25
2017-09-22T14:06:54.776Z,73.73
2017-09-22T14:08:04.815Z,73.35
2017-09-22T14:09:14.890Z,73.83
2017-09-22T14:10:25.246Z,74.12
2017-09-22T14:11:35.604Z,74.18
2017-09-22T14:12:45.953Z,74.18
2017-09-22T14:13:58.675Z,74.27
2017-09-22T14:15:09.049Z,74.18
2017-09-22T14:16:19.078Z,73.6
2017-09-22T14:17:29.428Z,73.41
2017-09-22T14:18:39.449Z,73.31
2017-09-22T14:19:49.792Z,73.73
2017-09-22T14:21:00.153Z,73.83
2017-09-22T14:22:10.498Z,74.12
2017-09-22T14:23:20.900Z,74.21
2017-09-22T14:24:32.849Z,74.12
2017-09-22T14:25:43.371Z,73.79
2017-09-22T14:26:53.403Z,73.79
2017-09-22T14:28:03.766Z,74.08
2017-09-22T14:29:14.104Z,73.79
2017-09-22T14:30:24.138Z,73.79
2017-09-22T14:31:34.490Z,74.18
2017-09-22T14:32:44.525Z,73.99
2017-09-22T14:33:54.897Z,73.99
2017-09-22T14:35:04.919Z,73.79
2017-09-22T14:36:15.258Z,73.69
2017-09-22T14:37:25.599Z,73.6
2017-09-22T14:38:35.949Z,73.89
2017-09-22T14:39:46.283Z,73.41
2017-09-22T14:40:56.635Z,73.6
2017-09-22T14:42:06.983Z,73.6
2017-09-22T14:43:17.337Z,73.41
2017-09-22T14:44:27.349Z,73.85
2017-09-22T14:45:37.386Z,73.95
2017-09-22T14:46:47.168Z,73.57
2017-09-22T14:47:57.197Z,73.95
2017-09-22T14:49:07.554Z,74.05
2017-09-22T14:50:17.892Z,74.05
2017-09-22T14:51:29.551Z,74.05
2017-09-22T14:52:39.591Z,73.85
2017-09-22T14:53:49.617Z,73.85
2017-09-22T14:54:59.965Z,73.66
2017-09-22T14:56:10.331Z,73.91
2017-09-22T14:57:20.348Z,74.4
2017-09-22T14:58:30.400Z,74.4
2017-09-22T14:59:40.747Z,74.4
2017-09-22T15:00:51.114Z,74.3
2017-09-22T15:02:01.461Z,73.91
2017-09-22T15:03:11.829Z,73.82
2017-09-22T15:04:22.191Z,74.01
2017-09-22T15:05:32.566Z,74.2
2017-09-22T15:06:42.931Z,74.16
2017-09-22T15:07:53.287Z,74.36
2017-09-22T15:09:04.849Z,74.65
2017-09-22T15:10:15.508Z,74.65
2017-09-22T15:11:25.869Z,74.45
2017-09-22T15:12:35.905Z,74.22
2017-09-22T15:13:46.252Z,74.36
2017-09-22T15:14:56.635Z,74.36
2017-09-22T15:16:06.674Z,74.13
2017-09-22T15:17:18.686Z,74.36
2017-09-22T15:18:29.230Z,74.45
2017-09-22T15:19:39.603Z,73.78
2017-09-22T15:20:49.985Z,73.97
2017-09-22T15:22:00.345Z,74.61
2017-09-22T15:23:10.688Z,74.22
2017-09-22T15:24:21.029Z,74.9
2017-09-22T15:25:31.391Z,74.9
2017-09-22T15:26:42.678Z,74.76
2017-09-22T15:27:53.034Z,74.48
2017-09-22T15:29:02.760Z,74.73
2017-09-22T15:30:13.106Z,74.73
2017-09-22T15:31:23.474Z,74.96
2017-09-22T15:32:33.836Z,74.48
2017-09-22T15:33:44.191Z,74.48
2017-09-22T15:34:54.543Z,74.76
2017-09-22T15:36:04.895Z,74.29
2017-09-22T15:37:15.302Z,74.67
2017-09-22T15:38:25.641Z,74.29
2017-09-22T15:39:36.036Z,74.29
2017-09-22T15:40:46.392Z,74.86
2017-09-22T15:41:56.785Z,74.86
2017-09-22T15:43:07.187Z,74.67
2017-09-22T15:44:17.547Z,74.54
2017-09-22T15:45:27.919Z,74.34
2017-09-22T15:46:38.272Z,74.54
2017-09-22T15:47:48.627Z,74.34
2017-09-22T15:49:00.899Z,74.34
2017-09-22T15:50:11.251Z,74.63